createdAt,value
2016-07-11T00:00:13.597Z,995.5
2016-07-11T00:15:07.739Z,995.51
2016-07-11T00:30:20.280Z,995.68
2016-07-11T00:45:07.669Z,995.73
2016-07-11T01:00:08.090Z,995.72
2016-07-11T01:15:10.036Z,995.64
2016-07-11T01:30:07.642Z,995.79
2016-07-11T01:45:09.361Z,995.87
2016-07-11T02:00:05.050Z,995.83
2016-07-11T02:15:07.650Z,995.87
2016-07-11T02:30:07.725Z,995.99
2016-07-11T02:45:07.654Z,995.87
2016-07-11T03:00:07.076Z,995.95
2016-07-11T03:15:03.060Z,996.05
2016-07-11T03:30:07.688Z,996.19
2016-07-11T03:45:07.999Z,996.19
2016-07-11T04:00:07.945Z,996.11
2016-07-11T04:15:16.093Z,996.12
2016-07-11T04:30:07.704Z,996.09
2016-07-11T04:45:17.603Z,996.2
2016-07-11T05:00:03.070Z,996.22
2016-07-11T05:15:07.669Z,996.33
2016-07-11T05:30:07.716Z,996.31
2016-07-11T05:45:09.409Z,996.44
2016-07-11T06:00:13.498Z,996.67
2016-07-11T06:15:12.116Z,996.7
2016-07-11T06:30:07.744Z,996.56
2016-07-11T06:45:07.672Z,996.64
2016-07-11T07:00:03.095Z,996.69
2016-07-11T07:15:03.109Z,996.69
2016-07-11T07:30:08.103Z,996.98
2016-07-11T07:45:15.930Z,996.99
2016-07-11T08:00:03.126Z,996.87
2016-07-11T08:15:08.167Z,996.87
2016-07-11T08:30:09.787Z,996.89
2016-07-11T08:45:07.740Z,997.07
2016-07-11T09:00:03.156Z,997.04
2016-07-11T09:15:03.154Z,997.2
2016-07-11T09:30:07.745Z,997.09
2016-07-11T09:45:03.228Z,997.19
2016-07-11T10:00:03.183Z,997.37
2016-07-11T10:15:03.179Z,997.38
2016-07-11T10:30:03.178Z,997.17
2016-07-11T10:45:03.232Z,997.56
2016-07-11T11:00:03.188Z,997.41
2016-07-11T11:15:03.203Z,997.38
2016-07-11T11:30:09.420Z,997.51
2016-07-11T11:45:07.878Z,997.42
2016-07-11T12:00:07.877Z,997.67
2016-07-11T12:15:14.572Z,997.54
2016-07-11T12:30:08.160Z,997.76
2016-07-11T12:45:09.479Z,997.86
2016-07-11T13:00:08.281Z,997.76
2016-07-11T13:15:06.185Z,997.79
2016-07-11T13:30:05.386Z,997.89
2016-07-11T13:45:09.412Z,997.96
2016-07-11T14:00:08.192Z,997.97
2016-07-11T14:15:06.196Z,997.67
2016-07-11T14:30:03.271Z,997.82
2016-07-11T14:45:03.279Z,997.99
2016-07-11T15:00:03.332Z,997.93
2016-07-11T15:15:09.510Z,997.79
2016-07-11T15:30:07.897Z,998.18
2016-07-11T15:45:16.124Z,998.09
2016-07-11T16:00:14.530Z,998.12
2016-07-11T16:15:14.467Z,998.24
2016-07-11T16:30:06.250Z,998.11
2016-07-11T16:45:03.333Z,998.09
2016-07-11T17:00:07.944Z,997.9
2016-07-11T17:15:07.950Z,997.87
2016-07-11T17:30:07.922Z,997.93
2016-07-11T17:45:05.456Z,997.81
2016-07-11T18:00:08.072Z,997.82
2016-07-11T18:15:03.343Z,997.88
2016-07-11T18:30:07.989Z,997.89
2016-07-11T18:45:10.435Z,998.04
2016-07-11T19:00:07.957Z,997.99
2016-07-11T19:15:11.580Z,998.2
2016-07-11T19:30:08.020Z,998.2
2016-07-11T19:45:03.392Z,998.36
2016-07-11T20:00:07.959Z,998.45
2016-07-11T20:15:03.380Z,998.62
2016-07-11T20:30:08.359Z,998.92
2016-07-11T20:45:03.398Z,998.81
2016-07-11T21:00:08.345Z,999.06
2016-07-11T21:15:08.003Z,999.39
2016-07-11T21:30:03.406Z,999.33
2016-07-11T21:45:08.080Z,999.45
2016-07-11T22:00:05.513Z,999.45
2016-07-11T22:15:03.423Z,999.49
2016-07-11T22:30:08.045Z,999.42
2016-07-11T22:45:08.058Z,999.29
2016-07-11T23:00:16.345Z,999.32
2016-07-11T23:15:08.031Z,999.26
2016-07-11T23:30:08.023Z,999.36
2016-07-11T23:45:03.442Z,999.23
